createdAt,value
2018-05-09T00:00:51.264Z,1002.02
2018-05-09T00:01:51.262Z,1001.98
2018-05-09T00:02:51.258Z,1001.99
2018-05-09T00:03:51.256Z,1001.97
2018-05-09T00:04:51.251Z,1001.99
2018-05-09T00:05:51.247Z,1001.96
2018-05-09T00:06:51.245Z,1001.96
2018-05-09T00:07:51.235Z,1002.00
2018-05-09T00:08:51.233Z,1001.96
2018-05-09T00:09:51.226Z,1001.95
2018-05-09T00:10:51.224Z,1001.95
2018-05-09T00:11:51.223Z,1001.98
2018-05-09T00:12:51.215Z,1001.95
2018-05-09T00:13:51.218Z,1001.97
2018-05-09T00:14:51.207Z,1001.97
2018-05-09T00:15:51.209Z,1002.00
2018-05-09T00:16:51.200Z,1001.98
2018-05-09T00:17:51.191Z,1001.99
2018-05-09T00:18:51.193Z,1002.00
2018-05-09T00:19:51.187Z,1001.97
2018-05-09T00:20:51.181Z,1001.97
2018-05-09T00:21:51.180Z,1001.96
2018-05-09T00:22:51.171Z,1001.99
2018-05-09T00:23:51.168Z,1001.95
2018-05-09T00:24:51.838Z,1001.93
2018-05-09T00:25:51.165Z,1001.93
2018-05-09T00:26:51.152Z,1001.94
2018-05-09T00:27:51.153Z,1001.93
2018-05-09T00:28:51.146Z,1001.90
2018-05-09T00:29:51.145Z,1001.91
2018-05-09T00:30:51.140Z,1001.93
2018-05-09T00:31:51.136Z,1001.88
2018-05-09T00:32:51.135Z,1001.89
2018-05-09T00:33:51.128Z,1001.87
2018-05-09T00:34:51.122Z,1001.85
2018-05-09T00:35:51.119Z,1001.86
2018-05-09T00:36:51.113Z,1001.84
2018-05-09T00:37:51.109Z,1001.86
2018-05-09T00:38:51.099Z,1001.86
2018-05-09T00:39:51.101Z,1001.86
2018-05-09T00:40:51.165Z,1001.86
2018-05-09T00:41:51.099Z,1001.87
2018-05-09T00:42:51.089Z,1001.83
2018-05-09T00:43:51.083Z,1001.86
2018-05-09T00:44:51.085Z,1001.83
2018-05-09T00:45:51.080Z,1001.87
2018-05-09T00:46:51.065Z,1001.84
2018-05-09T00:47:51.065Z,1001.86
2018-05-09T00:48:51.060Z,1001.83
2018-05-09T00:49:51.053Z,1001.82
2018-05-09T00:50:51.056Z,1001.80
2018-05-09T00:51:51.052Z,1001.79
2018-05-09T00:52:51.044Z,1001.84
2018-05-09T00:53:51.039Z,1001.80
2018-05-09T00:54:51.032Z,1001.74
2018-05-09T00:55:51.027Z,1001.82
2018-05-09T00:56:51.026Z,1001.75
2018-05-09T00:57:51.022Z,1001.78
2018-05-09T00:58:51.017Z,1001.81
2018-05-09T00:59:51.013Z,1001.76
2018-05-09T01:00:51.007Z,1001.68
2018-05-09T01:01:51.008Z,1001.72
2018-05-09T01:02:50.998Z,1001.72
2018-05-09T01:03:51.000Z,1001.72
2018-05-09T01:04:50.991Z,1001.68
2018-05-09T01:05:50.987Z,1001.73
2018-05-09T01:06:50.981Z,1001.69
2018-05-09T01:07:50.974Z,1001.70
2018-05-09T01:08:50.973Z,1001.71
2018-05-09T01:09:50.965Z,1001.71
2018-05-09T01:10:50.962Z,1001.74
2018-05-09T01:11:50.980Z,1001.70
2018-05-09T01:12:50.955Z,1001.68
2018-05-09T01:13:50.971Z,1001.69
2018-05-09T01:14:50.943Z,1001.70
2018-05-09T01:15:50.940Z,1001.70
2018-05-09T01:16:50.936Z,1001.71
2018-05-09T01:17:50.934Z,1001.68
2018-05-09T01:18:50.926Z,1001.71
2018-05-09T01:19:50.924Z,1001.68
2018-05-09T01:20:50.918Z,1001.69
2018-05-09T01:21:50.913Z,1001.68
2018-05-09T01:22:50.907Z,1001.69
2018-05-09T01:23:50.902Z,1001.70
2018-05-09T01:24:50.898Z,1001.67
2018-05-09T01:25:50.896Z,1001.68
2018-05-09T01:26:50.890Z,1001.68
2018-05-09T01:27:50.889Z,1001.66
2018-05-09T01:28:50.887Z,1001.70
2018-05-09T01:29:50.874Z,1001.67
2018-05-09T01:30:50.873Z,1001.68
2018-05-09T01:31:50.867Z,1001.67
2018-05-09T01:32:50.864Z,1001.65
2018-05-09T01:33:50.864Z,1001.67
2018-05-09T01:34:50.853Z,1001.64
2018-05-09T01:35:50.849Z,1001.64
2018-05-09T01:36:50.844Z,1001.60
2018-05-09T01:37:50.839Z,1001.62
2018-05-09T01:38:50.835Z,1001.61
2018-05-09T01:39:50.827Z,1001.58
2018-05-09T01:40:50.823Z,1001.57
2018-05-09T01:41:50.819Z,1001.60
2018-05-09T01:42:50.818Z,1001.57
2018-05-09T01:43:50.817Z,1001.56
2018-05-09T01:44:50.806Z,1001.54
2018-05-09T01:45:50.801Z,1001.55
2018-05-09T01:46:50.798Z,1001.53
2018-05-09T01:47:50.790Z,1001.53
2018-05-09T01:48:50.789Z,1001.52
2018-05-09T01:49:50.789Z,1001.52
2018-05-09T01:50:50.780Z,1001.49
2018-05-09T01:51:50.774Z,1001.52
2018-05-09T01:52:50.773Z,1001.51
2018-05-09T01:53:50.765Z,1001.51
2018-05-09T01:54:50.783Z,1001.49
2018-05-09T01:55:50.757Z,1001.49
2018-05-09T01:56:50.748Z,1001.47
2018-05-09T01:57:50.745Z,1001.50
2018-05-09T01:58:50.741Z,1001.49
2018-05-09T01:59:50.734Z,1001.51
2018-05-09T02:00:50.729Z,1001.49
2018-05-09T02:01:50.729Z,1001.50
2018-05-09T02:02:50.720Z,1001.49
2018-05-09T02:03:50.717Z,1001.51
2018-05-09T02:04:50.715Z,1001.52
2018-05-09T02:05:50.705Z,1001.52
2018-05-09T02:06:50.702Z,1001.52
2018-05-09T02:07:50.698Z,1001.53
2018-05-09T02:08:50.691Z,1001.53
2018-05-09T02:09:50.687Z,1001.56
2018-05-09T02:10:50.681Z,1001.56
2018-05-09T02:11:50.677Z,1001.60
2018-05-09T02:12:50.677Z,1001.60
2018-05-09T02:13:50.666Z,1001.60
2018-05-09T02:14:50.662Z,1001.62
2018-05-09T02:15:50.653Z,1001.66
2018-05-09T02:16:50.654Z,1001.63
2018-05-09T02:17:50.647Z,1001.64
2018-05-09T02:18:50.646Z,1001.65
2018-05-09T02:19:50.631Z,1001.63
2018-05-09T02:20:50.658Z,1001.61
2018-05-09T02:21:50.626Z,1001.63
2018-05-09T02:22:50.619Z,1001.59
2018-05-09T02:23:50.618Z,1001.65
2018-05-09T02:24:50.617Z,1001.57
2018-05-09T02:25:50.608Z,1001.55
2018-05-09T02:26:50.605Z,1001.57
2018-05-09T02:27:50.602Z,1001.57
2018-05-09T02:28:50.592Z,1001.56
2018-05-09T02:29:50.590Z,1001.55
2018-05-09T02:30:50.584Z,1001.55
2018-05-09T02:31:50.577Z,1001.55
2018-05-09T02:32:50.572Z,1001.52
2018-05-09T02:33:50.571Z,1001.56
2018-05-09T02:34:50.562Z,1001.52
2018-05-09T02:35:50.559Z,1001.53
2018-05-09T02:36:50.559Z,1001.51
2018-05-09T02:37:50.548Z,1001.50
2018-05-09T02:38:50.544Z,1001.51
2018-05-09T02:39:50.538Z,1001.48
2018-05-09T02:40:50.537Z,1001.48
2018-05-09T02:41:50.532Z,1001.48
2018-05-09T02:42:50.524Z,1001.45
2018-05-09T02:43:50.561Z,1001.48
2018-05-09T02:44:50.515Z,1001.49
2018-05-09T02:45:50.508Z,1001.48
2018-05-09T02:46:50.503Z,1001.52
2018-05-09T02:47:50.494Z,1001.48
2018-05-09T02:48:50.493Z,1001.50
2018-05-09T02:49:50.507Z,1001.51
2018-05-09T02:50:50.487Z,1001.50
2018-05-09T02:51:50.471Z,1001.48
2018-05-09T02:52:50.473Z,1001.48
2018-05-09T02:53:50.471Z,1001.48
2018-05-09T02:54:50.463Z,1001.52
2018-05-09T02:55:50.458Z,1001.50
2018-05-09T02:56:50.450Z,1001.50
2018-05-09T02:57:50.451Z,1001.51
2018-05-09T02:58:50.441Z,1001.54
2018-05-09T02:59:50.437Z,1001.54
2018-05-09T03:00:50.431Z,1001.51
2018-05-09T03:01:50.432Z,1001.52
2018-05-09T03:02:50.423Z,1001.54
2018-05-09T03:03:50.417Z,1001.54
2018-05-09T03:04:50.415Z,1001.54
2018-05-09T03:05:50.407Z,1001.55
2018-05-09T03:06:50.401Z,1001.56
2018-05-09T03:07:50.394Z,1001.57
2018-05-09T03:08:50.390Z,1001.54
2018-05-09T03:09:50.385Z,1001.52
2018-05-09T03:10:50.378Z,1001.52
2018-05-09T03:11:50.374Z,1001.54
2018-05-09T03:12:50.368Z,1001.56
2018-05-09T03:13:50.360Z,1001.52
2018-05-09T03:14:50.357Z,1001.52
2018-05-09T03:15:50.354Z,1001.52
2018-05-09T03:16:50.348Z,1001.53
2018-05-09T03:17:50.342Z,1001.52
2018-05-09T03:18:50.339Z,1001.55
2018-05-09T03:19:50.334Z,1001.54
2018-05-09T03:20:50.326Z,1001.55
2018-05-09T03:21:50.316Z,1001.53
2018-05-09T03:22:50.323Z,1001.54
2018-05-09T03:23:50.316Z,1001.49
2018-05-09T03:24:50.309Z,1001.51
2018-05-09T03:25:50.303Z,1001.50
2018-05-09T03:26:50.298Z,1001.43
2018-05-09T03:27:50.292Z,1001.46
2018-05-09T03:28:50.287Z,1001.52
2018-05-09T03:29:50.307Z,1001.49
2018-05-09T03:30:50.272Z,1001.52
2018-05-09T03:31:50.273Z,1001.49
2018-05-09T03:32:50.268Z,1001.52
2018-05-09T03:33:50.258Z,1001.50
2018-05-09T03:34:50.257Z,1001.51
2018-05-09T03:35:50.256Z,1001.52
2018-05-09T03:36:50.243Z,1001.48
2018-05-09T03:37:50.239Z,1001.50
2018-05-09T03:38:50.225Z,1001.48
2018-05-09T03:39:50.228Z,1001.52
2018-05-09T03:40:50.223Z,1001.54
2018-05-09T03:41:50.221Z,1001.53
2018-05-09T03:42:50.211Z,1001.51
2018-05-09T03:43:50.206Z,1001.53
2018-05-09T03:44:50.207Z,1001.51
2018-05-09T03:45:50.199Z,1001.52
2018-05-09T03:46:50.192Z,1001.54
2018-05-09T03:47:50.183Z,1001.56
2018-05-09T03:48:50.183Z,1001.56
2018-05-09T03:49:50.176Z,1001.57
2018-05-09T03:50:50.170Z,1001.59
2018-05-09T03:51:50.172Z,1001.62
2018-05-09T03:52:50.158Z,1001.61
2018-05-09T03:53:50.154Z,1001.61
2018-05-09T03:54:50.148Z,1001.61
2018-05-09T03:55:50.144Z,1001.60
2018-05-09T03:56:50.140Z,1001.63
2018-05-09T03:57:50.143Z,1001.63
2018-05-09T03:58:50.128Z,1001.63
2018-05-09T03:59:50.123Z,1001.65
2018-05-09T04:00:50.119Z,1001.64
2018-05-09T04:01:50.116Z,1001.68
2018-05-09T04:02:50.107Z,1001.63
2018-05-09T04:03:50.101Z,1001.65
2018-05-09T04:04:50.096Z,1001.61
2018-05-09T04:05:50.096Z,1001.67
2018-05-09T04:06:50.085Z,1001.64
2018-05-09T04:07:50.079Z,1001.64
2018-05-09T04:08:50.073Z,1001.65
2018-05-09T04:09:50.068Z,1001.63
2018-05-09T04:10:50.065Z,1001.65
2018-05-09T04:11:50.059Z,1001.69
2018-05-09T04:12:50.050Z,1001.70
2018-05-09T04:13:50.050Z,1001.72
2018-05-09T04:14:50.076Z,1001.70
2018-05-09T04:15:50.038Z,1001.69
2018-05-09T04:16:50.032Z,1001.70
2018-05-09T04:17:50.024Z,1001.68
2018-05-09T04:18:50.023Z,1001.68
2018-05-09T04:19:50.017Z,1001.67
2018-05-09T04:20:50.071Z,1001.69
2018-05-09T04:21:50.009Z,1001.68
2018-05-09T04:22:50.001Z,1001.70
2018-05-09T04:23:49.998Z,1001.70
2018-05-09T04:24:49.989Z,1001.73
2018-05-09T04:25:49.986Z,1001.73
2018-05-09T04:26:49.978Z,1001.71
2018-05-09T04:27:49.974Z,1001.72
2018-05-09T04:28:49.971Z,1001.76
2018-05-09T04:29:49.979Z,1001.78
2018-05-09T04:30:49.979Z,1001.81
2018-05-09T04:31:49.954Z,1001.83
2018-05-09T04:32:49.947Z,1001.83
2018-05-09T04:33:49.941Z,1001.83
2018-05-09T04:34:49.931Z,1001.82
2018-05-09T04:35:49.930Z,1001.81
2018-05-09T04:36:49.927Z,1001.87
2018-05-09T04:37:49.921Z,1001.83
2018-05-09T04:38:49.915Z,1001.83
2018-05-09T04:39:49.915Z,1001.88
2018-05-09T04:40:49.904Z,1001.93
2018-05-09T04:41:49.900Z,1001.92
2018-05-09T04:42:49.894Z,1001.91
2018-05-09T04:43:49.887Z,1001.94
2018-05-09T04:44:49.885Z,1001.90
2018-05-09T04:45:49.882Z,1001.92
2018-05-09T04:46:49.872Z,1001.89
2018-05-09T04:47:49.869Z,1001.85
2018-05-09T04:48:49.861Z,1001.91
2018-05-09T04:49:49.857Z,1001.86
2018-05-09T04:50:49.852Z,1001.90
2018-05-09T04:51:49.844Z,1001.89
2018-05-09T04:52:49.841Z,1001.93
2018-05-09T04:53:49.836Z,1001.94
2018-05-09T04:54:49.829Z,1001.94
2018-05-09T04:55:49.826Z,1001.93
2018-05-09T04:56:49.820Z,1001.89
2018-05-09T04:57:49.819Z,1001.89
2018-05-09T04:58:49.809Z,1001.87
2018-05-09T04:59:49.815Z,1001.89
2018-05-09T05:00:49.801Z,1001.89
2018-05-09T05:01:49.796Z,1001.86
2018-05-09T05:02:49.791Z,1001.87
2018-05-09T05:03:49.786Z,1001.88
2018-05-09T05:04:49.785Z,1001.89
2018-05-09T05:05:50.511Z,1001.85
2018-05-09T05:06:49.774Z,1001.86
2018-05-09T05:07:49.767Z,1001.87
2018-05-09T05:08:49.763Z,1001.89
2018-05-09T05:09:49.757Z,1001.88
2018-05-09T05:10:49.755Z,1001.85
2018-05-09T05:11:49.752Z,1001.85
2018-05-09T05:12:49.748Z,1001.92
2018-05-09T05:13:49.746Z,1001.93
2018-05-09T05:14:49.744Z,1001.94
2018-05-09T05:15:49.776Z,1001.94
2018-05-09T05:16:49.731Z,1001.92
2018-05-09T05:17:49.731Z,1001.91
2018-05-09T05:18:49.726Z,1001.96
2018-05-09T05:19:49.722Z,1001.98
2018-05-09T05:20:49.718Z,1002.06
2018-05-09T05:21:49.713Z,1002.06
2018-05-09T05:22:49.715Z,1002.03
2018-05-09T05:23:49.712Z,1002.00
2018-05-09T05:24:49.706Z,1002.01
2018-05-09T05:25:49.698Z,1002.02
2018-05-09T05:26:49.702Z,1002.04
2018-05-09T05:27:49.698Z,1001.98
2018-05-09T05:28:49.690Z,1001.97
2018-05-09T05:29:49.692Z,1002.03
2018-05-09T05:30:49.691Z,1002.00
2018-05-09T05:31:49.687Z,1001.95
2018-05-09T05:32:49.744Z,1001.97
2018-05-09T05:33:49.683Z,1001.99
2018-05-09T05:34:49.681Z,1002.03
2018-05-09T05:35:49.685Z,1002.03
2018-05-09T05:36:49.676Z,1002.04
2018-05-09T05:37:49.670Z,1002.09
2018-05-09T05:38:50.607Z,1002.04
2018-05-09T05:39:49.674Z,1002.05
2018-05-09T05:40:49.667Z,1002.05
2018-05-09T05:41:49.661Z,1002.03
2018-05-09T05:42:49.666Z,1002.06
2018-05-09T05:43:49.660Z,1002.04
2018-05-09T05:44:49.661Z,1002.05
2018-05-09T05:45:49.663Z,1002.06
2018-05-09T05:46:49.656Z,1002.04
2018-05-09T05:47:49.653Z,1002.08
2018-05-09T05:48:49.656Z,1002.05
2018-05-09T05:49:49.657Z,1002.12
2018-05-09T05:50:49.648Z,1002.10
2018-05-09T05:51:49.649Z,1002.11
2018-05-09T05:52:49.644Z,1002.11
2018-05-09T05:53:49.645Z,1002.11
2018-05-09T05:54:49.671Z,1002.09
2018-05-09T05:55:49.646Z,1002.11
2018-05-09T05:56:49.642Z,1002.11
2018-05-09T05:57:49.641Z,1002.11
2018-05-09T05:58:49.643Z,1002.11
2018-05-09T05:59:49.641Z,1002.12
2018-05-09T06:00:49.646Z,1002.08
2018-05-09T06:01:49.646Z,1002.08
2018-05-09T06:02:49.643Z,1002.06
2018-05-09T06:03:49.645Z,1002.05
2018-05-09T06:04:49.644Z,1002.02
2018-05-09T06:05:49.644Z,1002.04
2018-05-09T06:06:49.644Z,1001.99
2018-05-09T06:07:49.721Z,1001.97
2018-05-09T06:08:49.639Z,1001.95
2018-05-09T06:09:49.646Z,1001.97
2018-05-09T06:10:49.644Z,1002.01
2018-05-09T06:11:49.645Z,1001.99
2018-05-09T06:12:49.646Z,1001.98
2018-05-09T06:13:49.647Z,1002.00
2018-05-09T06:14:50.400Z,1002.03
2018-05-09T06:15:51.184Z,1002.00
2018-05-09T06:16:49.643Z,1001.98
2018-05-09T06:18:17.571Z,1002.04
2018-05-09T06:18:50.550Z,1002.08
2018-05-09T06:19:50.551Z,1002.05
2018-05-09T06:22:58.402Z,1002.09
2018-05-09T06:23:23.061Z,1002.06
2018-05-09T06:25:54.061Z,1002.06
2018-05-09T06:26:17.672Z,1002.09
2018-05-09T06:39:22.174Z,1002.24
2018-05-09T06:45:43.528Z,1002.31
2018-05-09T06:46:37.908Z,1002.35
2018-05-09T07:21:15.948Z,1002.40
2018-05-09T07:21:57.524Z,1002.41
2018-05-09T09:25:57.132Z,1002.26
2018-05-09T09:26:28.475Z,1002.21
2018-05-09T09:38:13.610Z,1002.10
2018-05-09T09:38:39.877Z,1002.12
2018-05-09T09:42:06.406Z,1002.08
2018-05-09T09:43:05.877Z,1002.08
2018-05-09T09:45:00.114Z,1002.06
2018-05-09T09:47:21.007Z,1002.10
2018-05-09T09:48:20.537Z,1002.13
2018-05-09T09:50:25.410Z,1002.09
2018-05-09T09:52:36.545Z,1002.05
2018-05-09T09:53:35.725Z,1002.05
2018-05-09T09:55:39.380Z,1002.03
2018-05-09T09:56:29.388Z,1001.99
2018-05-09T09:58:23.276Z,1001.97
2018-05-09T09:59:22.996Z,1001.95
2018-05-09T10:01:19.165Z,1001.97
2018-05-09T10:02:18.148Z,1001.97
2018-05-09T10:04:12.871Z,1001.93
2018-05-09T10:05:11.408Z,1001.93
2018-05-09T10:07:05.651Z,1001.93
2018-05-09T10:08:05.199Z,1001.89
2018-05-09T10:09:05.470Z,1001.88
2018-05-09T10:10:05.323Z,1001.87
2018-05-09T10:11:06.178Z,1001.84
2018-05-09T10:12:05.187Z,1001.83
2018-05-09T10:13:05.194Z,1001.81
2018-05-09T10:14:05.231Z,1001.79
2018-05-09T10:15:05.237Z,1001.77
2018-05-09T10:16:05.313Z,1001.78
2018-05-09T10:17:05.245Z,1001.76
2018-05-09T10:18:05.258Z,1001.75
2018-05-09T10:19:05.271Z,1001.73
2018-05-09T10:20:05.289Z,1001.74
2018-05-09T10:21:05.315Z,1001.73
2018-05-09T10:22:05.322Z,1001.70
2018-05-09T10:23:06.871Z,1001.70
2018-05-09T10:24:05.331Z,1001.72
2018-05-09T10:25:05.349Z,1001.67
2018-05-09T10:26:05.371Z,1001.68
2018-05-09T10:27:05.392Z,1001.62
2018-05-09T10:28:05.386Z,1001.67
2018-05-09T10:29:05.403Z,1001.62
2018-05-09T10:30:05.433Z,1001.69
2018-05-09T10:31:05.538Z,1001.65
2018-05-09T10:32:05.454Z,1001.67
2018-05-09T10:33:05.481Z,1001.64
2018-05-09T10:34:05.488Z,1001.61
2018-05-09T10:35:05.477Z,1001.59
2018-05-09T10:36:05.493Z,1001.60
2018-05-09T10:37:05.518Z,1001.64
2018-05-09T10:38:05.512Z,1001.63
2018-05-09T10:39:05.545Z,1001.63
2018-05-09T10:40:05.545Z,1001.63
2018-05-09T10:41:05.552Z,1001.62
2018-05-09T10:42:05.565Z,1001.64
2018-05-09T10:43:05.583Z,1001.62
2018-05-09T10:44:05.593Z,1001.59
2018-05-09T10:45:05.618Z,1001.61
2018-05-09T10:46:05.619Z,1001.64
2018-05-09T10:47:05.633Z,1001.62
2018-05-09T10:48:05.641Z,1001.61
2018-05-09T10:49:05.661Z,1001.60
2018-05-09T10:50:05.694Z,1001.54
2018-05-09T10:51:05.684Z,1001.58
2018-05-09T10:52:05.700Z,1001.57
2018-05-09T10:53:05.746Z,1001.58
2018-05-09T10:54:05.743Z,1001.57
2018-05-09T10:55:05.767Z,1001.56
2018-05-09T10:56:05.750Z,1001.57
2018-05-09T10:57:05.762Z,1001.58
2018-05-09T10:58:05.780Z,1001.55
2018-05-09T10:59:05.787Z,1001.60
2018-05-09T11:00:07.370Z,1001.52
2018-05-09T11:01:05.830Z,1001.48
2018-05-09T11:02:05.825Z,1001.53
2018-05-09T11:03:05.835Z,1001.56
2018-05-09T11:04:05.876Z,1001.51
2018-05-09T11:05:07.423Z,1001.51
2018-05-09T11:06:05.889Z,1001.50
2018-05-09T11:07:05.882Z,1001.51
2018-05-09T11:08:05.929Z,1001.54
2018-05-09T11:09:05.913Z,1001.52
2018-05-09T11:10:05.950Z,1001.50
2018-05-09T11:11:05.954Z,1001.46
2018-05-09T11:12:05.946Z,1001.48
2018-05-09T11:13:05.972Z,1001.46
2018-05-09T11:14:05.967Z,1001.45
2018-05-09T11:15:06.014Z,1001.45
2018-05-09T11:16:07.876Z,1001.41
2018-05-09T11:17:06.049Z,1001.38
2018-05-09T11:18:06.037Z,1001.34
2018-05-09T11:19:06.052Z,1001.27
2018-05-09T11:20:06.041Z,1001.33
2018-05-09T11:21:06.054Z,1001.36
2018-05-09T11:22:06.080Z,1001.35
2018-05-09T11:23:07.879Z,1001.35
2018-05-09T11:24:06.098Z,1001.36
2018-05-09T11:25:06.121Z,1001.29
2018-05-09T11:26:06.117Z,1001.31
2018-05-09T11:27:06.136Z,1001.25
2018-05-09T11:28:06.164Z,1001.26
2018-05-09T11:29:06.211Z,1001.24
2018-05-09T11:30:06.181Z,1001.28
2018-05-09T11:31:06.170Z,1001.28
2018-05-09T11:32:06.220Z,1001.29
2018-05-09T11:33:06.223Z,1001.24
2018-05-09T11:34:07.262Z,1001.23
2018-05-09T11:35:06.257Z,1001.23
2018-05-09T11:36:06.263Z,1001.24
2018-05-09T11:37:06.380Z,1001.25
2018-05-09T11:38:06.467Z,1001.26
2018-05-09T11:39:06.285Z,1001.25
2018-05-09T11:40:06.283Z,1001.17
2018-05-09T11:41:06.293Z,1001.22
2018-05-09T11:42:06.310Z,1001.22
2018-05-09T11:43:06.316Z,1001.19
2018-05-09T11:44:06.322Z,1001.21
2018-05-09T11:45:06.338Z,1001.17
2018-05-09T11:46:06.353Z,1001.14
2018-05-09T11:47:06.400Z,1001.12
2018-05-09T11:48:06.372Z,1001.12
2018-05-09T11:49:06.388Z,1001.09
2018-05-09T11:50:06.395Z,1001.04
2018-05-09T11:51:06.422Z,1001.13
2018-05-09T11:52:09.429Z,1001.05
2018-05-09T11:53:06.450Z,1001.04
2018-05-09T11:54:06.467Z,1001.02
2018-05-09T11:55:06.487Z,1001.04
2018-05-09T11:56:06.471Z,1001.04
2018-05-09T11:57:06.517Z,1001.03
2018-05-09T11:58:06.500Z,1000.99
2018-05-09T11:59:06.514Z,1001.06
2018-05-09T12:00:06.616Z,1000.97
2018-05-09T12:01:06.532Z,1000.94
2018-05-09T12:02:06.598Z,1000.97
2018-05-09T12:03:06.550Z,1000.95
2018-05-09T12:04:06.569Z,1000.98
2018-05-09T12:05:06.589Z,1000.94
2018-05-09T12:06:06.593Z,1000.91
2018-05-09T12:07:06.621Z,1000.90
2018-05-09T12:08:06.637Z,1000.86
2018-05-09T12:09:06.622Z,1000.90
2018-05-09T12:10:06.632Z,1000.92
2018-05-09T12:19:15.139Z,1000.72
2018-05-09T12:34:15.377Z,1000.72
2018-05-09T12:34:58.495Z,1000.73
2018-05-09T12:41:53.136Z,1000.75
2018-05-09T12:45:03.503Z,1000.68
2018-05-09T12:45:58.867Z,1000.68
2018-05-09T12:49:35.332Z,1000.66
2018-05-09T12:50:25.368Z,1000.68
2018-05-09T12:58:29.456Z,1000.62
2018-05-09T13:01:22.693Z,1000.63
2018-05-09T13:04:27.929Z,1000.41
2018-05-09T13:05:27.771Z,1000.54
2018-05-09T13:06:29.729Z,1000.51
2018-05-09T13:07:30.518Z,1000.49
2018-05-09T13:08:29.292Z,1000.46
2018-05-09T13:09:27.581Z,1000.42
2018-05-09T13:10:27.609Z,1000.38
2018-05-09T13:11:27.600Z,1000.37
2018-05-09T13:12:27.623Z,1000.36
2018-05-09T13:13:27.808Z,1000.26
2018-05-09T13:14:29.297Z,1000.36
2018-05-09T13:15:27.644Z,1000.40
2018-05-09T13:16:27.654Z,1000.20
2018-05-09T13:17:27.666Z,1000.29
2018-05-09T13:18:27.692Z,1000.22
2018-05-09T13:19:27.730Z,1000.19
2018-05-09T13:20:28.693Z,1000.16
2018-05-09T13:21:29.326Z,1000.11
2018-05-09T13:22:27.717Z,1000.11
2018-05-09T13:23:27.724Z,1000.10
2018-05-09T13:24:27.735Z,1000.10
2018-05-09T13:25:27.752Z,1000.17
2018-05-09T13:26:27.752Z,1000.16
2018-05-09T13:27:27.761Z,1000.11
2018-05-09T13:28:27.769Z,1000.13
2018-05-09T13:29:27.779Z,1000.07
2018-05-09T13:30:29.306Z,1000.15
2018-05-09T13:31:27.799Z,1000.06
2018-05-09T13:32:29.333Z,1000.01
2018-05-09T13:33:27.832Z,1000.07
2018-05-09T13:34:27.848Z,1000.11
2018-05-09T13:35:27.835Z,1000.04
2018-05-09T13:36:27.843Z,1000.03
2018-05-09T13:37:27.857Z,1000.03
2018-05-09T13:38:27.862Z,999.90
2018-05-09T13:39:27.878Z,999.98
2018-05-09T13:40:27.891Z,1000.05
2018-05-09T13:41:27.890Z,1000.02
2018-05-09T13:42:27.931Z,1000.01
2018-05-09T13:43:27.927Z,1000.09
2018-05-09T13:44:27.913Z,1000.03
2018-05-09T13:45:27.923Z,999.97
2018-05-09T13:46:27.948Z,999.94
2018-05-09T13:47:27.945Z,999.93
2018-05-09T13:48:27.954Z,999.90
2018-05-09T13:49:27.965Z,999.95
2018-05-09T13:50:27.986Z,999.96
2018-05-09T13:51:28.022Z,999.92
2018-05-09T13:52:27.987Z,999.88
2018-05-09T13:53:28.005Z,999.89
2018-05-09T13:54:28.006Z,999.83
2018-05-09T13:55:28.022Z,999.85
2018-05-09T13:56:28.025Z,999.86
2018-05-09T13:57:28.029Z,999.83
2018-05-09T13:58:28.038Z,999.80
2018-05-09T13:59:28.098Z,999.82
2018-05-09T14:00:28.055Z,999.80
2018-05-09T14:01:28.059Z,999.79
2018-05-09T14:02:28.088Z,999.81
2018-05-09T14:03:28.075Z,999.78
2018-05-09T14:04:28.087Z,999.79
2018-05-09T14:05:28.098Z,999.76
2018-05-09T14:06:28.101Z,999.74
2018-05-09T14:07:29.842Z,999.76
2018-05-09T14:08:28.132Z,999.76
2018-05-09T14:09:28.132Z,999.69
2018-05-09T14:10:28.138Z,999.76
2018-05-09T14:11:28.157Z,999.74
2018-05-09T14:12:28.156Z,999.72
2018-05-09T14:13:28.158Z,999.74
2018-05-09T14:14:28.172Z,999.66
2018-05-09T14:15:28.203Z,999.67
2018-05-09T14:16:28.186Z,999.70
2018-05-09T14:17:28.192Z,999.66
2018-05-09T14:18:28.211Z,999.69
2018-05-09T14:19:28.207Z,999.69
2018-05-09T14:20:28.218Z,999.68
2018-05-09T14:21:28.223Z,999.66
2018-05-09T14:22:28.230Z,999.69
2018-05-09T14:23:28.238Z,999.70
2018-05-09T14:24:28.246Z,999.62
2018-05-09T14:25:28.254Z,999.63
2018-05-09T14:26:28.260Z,999.62
2018-05-09T14:27:28.268Z,999.66
2018-05-09T14:28:28.275Z,999.57
2018-05-09T14:29:28.282Z,999.60
2018-05-09T14:30:28.282Z,999.58
2018-05-09T14:31:28.292Z,999.61
2018-05-09T14:32:28.300Z,999.59
2018-05-09T14:33:28.306Z,999.65
2018-05-09T14:34:28.310Z,999.61
2018-05-09T14:35:28.380Z,999.63
2018-05-09T14:36:28.323Z,999.62
2018-05-09T14:37:28.330Z,999.60
2018-05-09T14:38:28.335Z,999.55
2018-05-09T14:39:28.343Z,999.64
2018-05-09T14:40:28.347Z,999.59
2018-05-09T14:41:28.357Z,999.57
2018-05-09T14:42:28.364Z,999.56
2018-05-09T14:43:28.369Z,999.59
2018-05-09T14:44:28.372Z,999.54
2018-05-09T14:45:28.379Z,999.54
2018-05-09T14:46:28.381Z,999.57
2018-05-09T14:47:28.388Z,999.54
2018-05-09T14:48:28.389Z,999.49
2018-05-09T14:49:28.392Z,999.47
2018-05-09T14:50:28.403Z,999.50
2018-05-09T14:51:28.403Z,999.50
2018-05-09T14:52:28.409Z,999.51
2018-05-09T14:53:28.435Z,999.50
2018-05-09T14:54:28.418Z,999.49
2018-05-09T14:55:28.422Z,999.45
2018-05-09T14:56:28.425Z,999.48
2018-05-09T14:57:28.427Z,999.46
2018-05-09T14:58:28.433Z,999.52
2018-05-09T14:59:28.431Z,999.50
2018-05-09T15:00:28.440Z,999.44
2018-05-09T15:01:28.440Z,999.48
2018-05-09T15:02:28.443Z,999.42
2018-05-09T15:03:28.448Z,999.42
2018-05-09T15:04:28.453Z,999.45
2018-05-09T15:05:28.464Z,999.44
2018-05-09T15:06:28.458Z,999.44
2018-05-09T15:07:28.462Z,999.45
2018-05-09T15:08:28.520Z,999.41
2018-05-09T15:09:28.468Z,999.41
2018-05-09T15:10:28.470Z,999.42
2018-05-09T15:11:28.470Z,999.40
2018-05-09T15:12:28.475Z,999.42
2018-05-09T15:13:28.478Z,999.37
2018-05-09T15:14:28.484Z,999.40
2018-05-09T15:15:28.490Z,999.42
2018-05-09T15:16:28.488Z,999.41
2018-05-09T15:17:28.493Z,999.40
2018-05-09T15:18:28.495Z,999.40
2018-05-09T15:19:28.497Z,999.45
2018-05-09T15:20:28.501Z,999.40
2018-05-09T15:21:28.497Z,999.41
2018-05-09T15:22:28.504Z,999.40
2018-05-09T15:23:28.502Z,999.37
2018-05-09T15:24:28.507Z,999.37
2018-05-09T15:25:28.601Z,999.32
2018-05-09T15:26:28.521Z,999.33
2018-05-09T15:27:28.511Z,999.32
2018-05-09T15:28:28.517Z,999.32
2018-05-09T15:29:28.521Z,999.34
2018-05-09T15:30:28.533Z,999.31
2018-05-09T15:31:28.532Z,999.31
2018-05-09T15:32:28.528Z,999.30
2018-05-09T15:33:28.582Z,999.27
2018-05-09T15:34:28.537Z,999.27
2018-05-09T15:35:28.537Z,999.25
2018-05-09T15:36:28.567Z,999.24
2018-05-09T15:37:28.541Z,999.25
2018-05-09T15:38:28.542Z,999.26
2018-05-09T15:39:28.544Z,999.23
2018-05-09T15:40:28.574Z,999.26
2018-05-09T15:41:28.551Z,999.29
2018-05-09T15:42:28.560Z,999.28
2018-05-09T15:43:28.555Z,999.27
2018-05-09T15:44:28.554Z,999.29
2018-05-09T15:45:28.558Z,999.29
2018-05-09T15:46:28.560Z,999.34
2018-05-09T15:47:28.558Z,999.29
2018-05-09T15:48:28.560Z,999.28
2018-05-09T15:49:28.565Z,999.29
2018-05-09T15:50:28.565Z,999.31
2018-05-09T15:51:28.577Z,999.31
2018-05-09T15:52:28.584Z,999.30
2018-05-09T15:53:28.575Z,999.27
2018-05-09T15:54:28.585Z,999.27
2018-05-09T15:55:28.580Z,999.21
2018-05-09T15:56:28.584Z,999.23
2018-05-09T15:57:28.586Z,999.25
2018-05-09T15:58:28.588Z,999.20
2018-05-09T15:59:28.590Z,999.16
2018-05-09T16:00:28.596Z,999.20
2018-05-09T16:01:28.594Z,999.19
2018-05-09T16:02:28.598Z,999.17
2018-05-09T16:03:30.414Z,999.16
2018-05-09T16:04:28.605Z,999.14
2018-05-09T16:05:28.603Z,999.13
2018-05-09T16:06:28.625Z,999.11
2018-05-09T16:07:28.606Z,999.13
2018-05-09T16:08:28.609Z,999.14
2018-05-09T16:09:28.625Z,999.16
2018-05-09T16:10:28.626Z,999.14
2018-05-09T16:11:28.609Z,999.14